createdAt,value
2022-09-11T00:05:01.483Z,11.11
2022-09-11T00:15:59.980Z,11.11
2022-09-11T00:26:55.947Z,11.11
2022-09-11T00:37:55.335Z,11.01
2022-09-11T00:48:55.342Z,10.92
2022-09-11T00:59:57.114Z,10.82
2022-09-11T01:10:59.172Z,10.72
2022-09-11T01:22:02.289Z,10.62
2022-09-11T01:33:03.692Z,10.53
2022-09-11T01:44:07.282Z,10.43
2022-09-11T01:55:01.672Z,10.43
2022-09-11T02:05:43.887Z,10.33
2022-09-11T02:16:37.244Z,10.23
2022-09-11T02:27:20.786Z,10.23
2022-09-11T02:38:18.813Z,10.23
2022-09-11T02:49:06.446Z,10.33
2022-09-11T03:00:15.637Z,10.53
2022-09-11T03:11:01.960Z,10.62
2022-09-11T03:22:00.199Z,10.72
2022-09-11T03:33:00.581Z,10.62
2022-09-11T03:43:59.435Z,10.53
2022-09-11T03:55:09.606Z,10.53
2022-09-11T04:06:17.848Z,10.53
2022-09-11T04:17:24.267Z,10.62
2022-09-11T04:28:34.352Z,10.82
2022-09-11T04:39:39.671Z,10.82
2022-09-11T04:50:48.796Z,10.82
2022-09-11T05:01:56.654Z,11.11
2022-09-11T05:13:07.610Z,11.11
2022-09-11T05:24:11.572Z,11.02
2022-09-11T05:35:14.711Z,10.82
2022-09-11T05:45:40.116Z,10.92
2022-09-11T05:56:53.086Z,11.11
2022-09-11T06:07:49.439Z,11.50
2022-09-11T06:18:48.096Z,11.99
2022-09-11T06:29:51.101Z,12.58
2022-09-11T06:40:53.106Z,12.97
2022-09-11T06:51:50.177Z,12.87
2022-09-11T07:02:40.628Z,13.66
2022-09-11T07:13:32.446Z,14.14
2022-09-11T07:24:35.392Z,15.12
2022-09-11T07:35:31.700Z,15.51
2022-09-11T07:46:25.723Z,16.10
2022-09-11T07:57:02.774Z,16.59
2022-09-11T08:07:53.855Z,16.30
2022-09-11T08:18:34.152Z,16.49
2022-09-11T08:29:30.510Z,16.78
2022-09-11T08:40:28.842Z,18.25
2022-09-11T08:51:29.148Z,18.64
2022-09-11T09:02:29.160Z,19.13
2022-09-11T09:13:21.503Z,19.33
2022-09-11T09:24:16.742Z,20.01
2022-09-11T09:35:10.704Z,21.09
2022-09-11T09:46:10.129Z,21.09
2022-09-11T09:57:07.599Z,20.01
2022-09-11T10:07:42.582Z,20.11
2022-09-11T10:18:19.866Z,20.40
2022-09-11T10:29:20.091Z,21.77
2022-09-11T10:40:13.153Z,22.07
2022-09-11T10:50:55.972Z,22.75
2022-09-11T11:01:42.276Z,24.12
2022-09-11T11:12:40.847Z,24.90
2022-09-11T11:23:37.871Z,23.05
2022-09-11T11:34:28.177Z,22.17
2022-09-11T11:45:15.029Z,23.14
2022-09-11T11:56:01.494Z,21.97
2022-09-11T12:06:52.847Z,22.36
2022-09-11T12:17:40.220Z,21.48
2022-09-11T12:28:12.665Z,20.80
2022-09-11T12:39:04.165Z,20.89
2022-09-11T12:49:37.797Z,20.80
2022-09-11T13:00:33.635Z,20.41
2022-09-11T13:11:33.041Z,21.28
2022-09-11T13:22:27.670Z,21.77
2022-09-11T13:33:25.020Z,20.89
2022-09-11T13:44:16.810Z,20.89
2022-09-11T13:55:15.431Z,20.11
2022-09-11T14:06:15.853Z,21.48
2022-09-11T14:17:08.425Z,26.47
2022-09-11T14:27:44.864Z,22.65
2022-09-11T14:38:15.884Z,20.99
2022-09-11T14:49:13.359Z,21.58
2022-09-11T15:00:18.782Z,23.83
2022-09-11T15:11:18.062Z,22.85
2022-09-11T15:22:13.664Z,21.19
2022-09-11T15:33:12.277Z,21.19
2022-09-11T15:44:09.993Z,20.60
2022-09-11T15:55:10.342Z,20.50
2022-09-11T16:06:10.027Z,19.92
2022-09-11T16:17:07.324Z,19.23
2022-09-11T16:28:03.555Z,18.64
2022-09-11T16:38:58.803Z,18.25
2022-09-11T16:50:05.847Z,17.96
2022-09-11T17:00:28.180Z,17.08
2022-09-11T17:11:00.941Z,16.39
2022-09-11T17:21:40.230Z,16.00
2022-09-11T17:32:28.149Z,15.61
2022-09-11T17:43:10.211Z,15.22
2022-09-11T17:53:45.719Z,15.12
2022-09-11T18:04:21.933Z,14.63
2022-09-11T18:14:56.774Z,14.24
2022-09-11T18:25:32.478Z,14.24
2022-09-11T18:36:29.214Z,14.34
2022-09-11T18:47:19.445Z,14.44
2022-09-11T18:58:15.456Z,14.44
2022-09-11T19:09:05.657Z,14.44
2022-09-11T19:20:03.745Z,14.24
2022-09-11T19:31:03.316Z,14.05
2022-09-11T19:41:56.792Z,13.85
2022-09-11T19:52:52.650Z,13.75
2022-09-11T20:03:40.770Z,13.95
2022-09-11T20:14:26.943Z,14.05
2022-09-11T20:25:14.339Z,13.95
2022-09-11T20:36:15.129Z,13.95
2022-09-11T20:47:06.303Z,13.95
2022-09-11T20:57:53.414Z,14.05
2022-09-11T21:08:29.909Z,13.56
2022-09-11T21:19:27.270Z,13.56
2022-09-11T21:30:05.383Z,13.46
2022-09-11T21:40:56.783Z,13.17
2022-09-11T21:51:33.969Z,12.87
2022-09-11T22:02:35.121Z,12.68
2022-09-11T22:13:30.149Z,12.58
2022-09-11T22:24:30.969Z,12.29
2022-09-11T22:35:30.701Z,11.99
2022-09-11T22:46:31.176Z,11.89
2022-09-11T22:57:30.143Z,11.70
2022-09-11T23:08:32.317Z,11.70
2022-09-11T23:19:34.326Z,11.60
2022-09-11T23:30:31.340Z,11.41
2022-09-11T23:41:31.595Z,11.50
2022-09-11T23:52:33.507Z,11.31
